sensor_id;sensor_type;location;lat;lon;timestamp;P1;durP1;ratioP1;P2;durP2;ratioP2
18677;SDS011;9469;51.114;13.914;2023-10-31T00:02:55;9.80;;;6.23;;
18677;SDS011;9469;51.114;13.914;2023-10-31T00:08:00;9.10;;;6.33;;
18677;SDS011;9469;51.114;13.914;2023-10-31T00:13:06;11.83;;;6.40;;
18677;SDS011;9469;51.114;13.914;2023-10-31T00:18:13;9.80;;;7.37;;
18677;SDS011;9469;51.114;13.914;2023-10-31T00:23:20;10.77;;;7.13;;
18677;SDS011;9469;51.114;13.914;2023-10-31T00:28:30;11.73;;;7.83;;
18677;SDS011;9469;51.114;13.914;2023-10-31T00:33:38;11.90;;;6.80;;
18677;SDS011;9469;51.114;13.914;2023-10-31T00:38:44;11.33;;;6.33;;
18677;SDS011;9469;51.114;13.914;2023-10-31T00:43:51;11.93;;;6.87;;
18677;SDS011;9469;51.114;13.914;2023-10-31T00:49:00;10.30;;;6.63;;
18677;SDS011;9469;51.114;13.914;2023-10-31T00:54:05;11.37;;;6.80;;
18677;SDS011;9469;51.114;13.914;2023-10-31T00:59:10;11.13;;;5.90;;
18677;SDS011;9469;51.114;13.914;2023-10-31T01:04:21;8.73;;;5.73;;
18677;SDS011;9469;51.114;13.914;2023-10-31T01:09:27;10.17;;;6.20;;
18677;SDS011;9469;51.114;13.914;2023-10-31T01:14:32;12.77;;;6.03;;
18677;SDS011;9469;51.114;13.914;2023-10-31T01:19:42;10.90;;;6.63;;
18677;SDS011;9469;51.114;13.914;2023-10-31T01:24:52;10.13;;;6.63;;
18677;SDS011;9469;51.114;13.914;2023-10-31T01:29:57;10.87;;;5.87;;
18677;SDS011;9469;51.114;13.914;2023-10-31T01:35:06;8.37;;;6.23;;
18677;SDS011;9469;51.114;13.914;2023-10-31T01:40:12;10.23;;;6.90;;
18677;SDS011;9469;51.114;13.914;2023-10-31T01:45:22;14.77;;;7.10;;
18677;SDS011;9469;51.114;13.914;2023-10-31T01:50:35;10.83;;;7.03;;
18677;SDS011;9469;51.114;13.914;2023-10-31T01:55:42;12.67;;;6.50;;
18677;SDS011;9469;51.114;13.914;2023-10-31T02:00:47;11.33;;;7.30;;
18677;SDS011;9469;51.114;13.914;2023-10-31T02:05:58;10.07;;;7.00;;
18677;SDS011;9469;51.114;13.914;2023-10-31T02:11:06;10.83;;;7.60;;
18677;SDS011;9469;51.114;13.914;2023-10-31T02:16:14;13.30;;;7.40;;
18677;SDS011;9469;51.114;13.914;2023-10-31T02:21:23;10.97;;;7.73;;
18677;SDS011;9469;51.114;13.914;2023-10-31T02:26:34;10.13;;;7.80;;
18677;SDS011;9469;51.114;13.914;2023-10-31T02:31:40;12.80;;;8.57;;
18677;SDS011;9469;51.114;13.914;2023-10-31T02:36:45;10.17;;;7.37;;
18677;SDS011;9469;51.114;13.914;2023-10-31T02:41:54;9.87;;;7.37;;
18677;SDS011;9469;51.114;13.914;2023-10-31T02:46:59;11.93;;;7.83;;
18677;SDS011;9469;51.114;13.914;2023-10-31T02:52:05;9.30;;;8.13;;
18677;SDS011;9469;51.114;13.914;2023-10-31T02:57:13;11.87;;;8.13;;
18677;SDS011;9469;51.114;13.914;2023-10-31T03:02:18;11.93;;;8.33;;
18677;SDS011;9469;51.114;13.914;2023-10-31T03:07:24;11.50;;;8.87;;
18677;SDS011;9469;51.114;13.914;2023-10-31T03:12:32;14.60;;;11.10;;
18677;SDS011;9469;51.114;13.914;2023-10-31T03:17:37;14.20;;;11.73;;
18677;SDS011;9469;51.114;13.914;2023-10-31T03:22:44;14.00;;;11.43;;
18677;SDS011;9469;51.114;13.914;2023-10-31T03:27:54;14.77;;;13.13;;
18677;SDS011;9469;51.114;13.914;2023-10-31T03:32:59;17.87;;;14.13;;
18677;SDS011;9469;51.114;13.914;2023-10-31T03:38:05;20.23;;;15.03;;
18677;SDS011;9469;51.114;13.914;2023-10-31T03:43:13;18.77;;;15.13;;
18677;SDS011;9469;51.114;13.914;2023-10-31T03:48:18;22.67;;;16.53;;
18677;SDS011;9469;51.114;13.914;2023-10-31T03:53:23;21.23;;;15.20;;
18677;SDS011;9469;51.114;13.914;2023-10-31T03:58:31;20.00;;;14.33;;
18677;SDS011;9469;51.114;13.914;2023-10-31T04:03:39;19.73;;;15.07;;
18677;SDS011;9469;51.114;13.914;2023-10-31T04:08:44;19.23;;;14.23;;
18677;SDS011;9469;51.114;13.914;2023-10-31T04:13:52;17.03;;;13.20;;
18677;SDS011;9469;51.114;13.914;2023-10-31T04:18:57;18.20;;;13.20;;
18677;SDS011;9469;51.114;13.914;2023-10-31T04:24:02;16.07;;;11.87;;
18677;SDS011;9469;51.114;13.914;2023-10-31T04:29:11;14.93;;;10.33;;
18677;SDS011;9469;51.114;13.914;2023-10-31T04:34:17;12.83;;;9.73;;
18677;SDS011;9469;51.114;13.914;2023-10-31T04:39:23;12.10;;;9.77;;
18677;SDS011;9469;51.114;13.914;2023-10-31T04:44:34;12.97;;;7.50;;
18677;SDS011;9469;51.114;13.914;2023-10-31T04:49:41;10.73;;;7.20;;
18677;SDS011;9469;51.114;13.914;2023-10-31T04:54:47;7.43;;;5.97;;
18677;SDS011;9469;51.114;13.914;2023-10-31T04:59:55;5.50;;;4.50;;
18677;SDS011;9469;51.114;13.914;2023-10-31T05:05:01;7.23;;;4.73;;
18677;SDS011;9469;51.114;13.914;2023-10-31T05:10:07;6.27;;;4.60;;
18677;SDS011;9469;51.114;13.914;2023-10-31T05:15:16;6.93;;;4.57;;
18677;SDS011;9469;51.114;13.914;2023-10-31T05:20:21;5.70;;;4.60;;
18677;SDS011;9469;51.114;13.914;2023-10-31T05:25:26;5.37;;;4.87;;
18677;SDS011;9469;51.114;13.914;2023-10-31T05:30:34;5.23;;;4.73;;
18677;SDS011;9469;51.114;13.914;2023-10-31T05:35:39;4.90;;;3.77;;
18677;SDS011;9469;51.114;13.914;2023-10-31T05:40:47;6.57;;;3.90;;
18677;SDS011;9469;51.114;13.914;2023-10-31T05:45:55;4.30;;;3.90;;
18677;SDS011;9469;51.114;13.914;2023-10-31T05:51:00;6.13;;;4.07;;
18677;SDS011;9469;51.114;13.914;2023-10-31T05:56:08;4.33;;;3.47;;
18677;SDS011;9469;51.114;13.914;2023-10-31T06:01:17;3.47;;;2.60;;
18677;SDS011;9469;51.114;13.914;2023-10-31T06:06:22;4.80;;;2.83;;
18677;SDS011;9469;51.114;13.914;2023-10-31T06:11:27;3.17;;;2.33;;
18677;SDS011;9469;51.114;13.914;2023-10-31T06:16:41;5.23;;;2.13;;
18677;SDS011;9469;51.114;13.914;2023-10-31T06:21:48;3.63;;;1.83;;
18677;SDS011;9469;51.114;13.914;2023-10-31T06:26:53;2.73;;;2.00;;
18677;SDS011;9469;51.114;13.914;2023-10-31T06:32:02;2.03;;;1.60;;
18677;SDS011;9469;51.114;13.914;2023-10-31T06:37:07;1.97;;;1.50;;
18677;SDS011;9469;51.114;13.914;2023-10-31T06:42:15;1.40;;;1.30;;
18677;SDS011;9469;51.114;13.914;2023-10-31T06:47:23;2.93;;;1.50;;
18677;SDS011;9469;51.114;13.914;2023-10-31T06:52:29;1.20;;;1.10;;
18677;SDS011;9469;51.114;13.914;2023-10-31T06:57:35;5.43;;;1.10;;
18677;SDS011;9469;51.114;13.914;2023-10-31T07:02:45;1.33;;;1.00;;
18677;SDS011;9469;51.114;13.914;2023-10-31T07:07:51;1.27;;;1.10;;
18677;SDS011;9469;51.114;13.914;2023-10-31T07:12:57;0.90;;;0.90;;
18677;SDS011;9469;51.114;13.914;2023-10-31T07:18:07;0.80;;;0.80;;
18677;SDS011;9469;51.114;13.914;2023-10-31T07:23:12;1.10;;;0.93;;
18677;SDS011;9469;51.114;13.914;2023-10-31T07:28:18;1.03;;;0.90;;
18677;SDS011;9469;51.114;13.914;2023-10-31T07:33:26;1.20;;;0.80;;
18677;SDS011;9469;51.114;13.914;2023-10-31T07:38:32;2.87;;;0.80;;
18677;SDS011;9469;51.114;13.914;2023-10-31T07:43:39;5.80;;;1.00;;
18677;SDS011;9469;51.114;13.914;2023-10-31T07:48:48;1.00;;;0.87;;
18677;SDS011;9469;51.114;13.914;2023-10-31T07:53:53;1.47;;;1.00;;
18677;SDS011;9469;51.114;13.914;2023-10-31T07:59:00;2.40;;;0.70;;
18677;SDS011;9469;51.114;13.914;2023-10-31T08:04:07;0.70;;;0.70;;
18677;SDS011;9469;51.114;13.914;2023-10-31T08:09:13;1.70;;;0.83;;
18677;SDS011;9469;51.114;13.914;2023-10-31T08:14:18;2.30;;;0.80;;
18677;SDS011;9469;51.114;13.914;2023-10-31T08:19:30;0.60;;;0.53;;
18677;SDS011;9469;51.114;13.914;2023-10-31T08:24:37;0.90;;;0.80;;
18677;SDS011;9469;51.114;13.914;2023-10-31T08:29:42;1.07;;;0.70;;
18677;SDS011;9469;51.114;13.914;2023-10-31T08:34:51;1.43;;;0.70;;
18677;SDS011;9469;51.114;13.914;2023-10-31T08:39:56;0.70;;;0.70;;
18677;SDS011;9469;51.114;13.914;2023-10-31T08:45:07;0.90;;;0.80;;
18677;SDS011;9469;51.114;13.914;2023-10-31T08:50:17;2.60;;;0.60;;
18677;SDS011;9469;51.114;13.914;2023-10-31T08:55:23;2.53;;;0.60;;
18677;SDS011;9469;51.114;13.914;2023-10-31T09:00:28;1.07;;;0.63;;
18677;SDS011;9469;51.114;13.914;2023-10-31T09:05:36;0.60;;;0.60;;
18677;SDS011;9469;51.114;13.914;2023-10-31T09:10:44;1.40;;;0.67;;
18677;SDS011;9469;51.114;13.914;2023-10-31T09:15:52;1.80;;;0.60;;
18677;SDS011;9469;51.114;13.914;2023-10-31T09:21:07;1.17;;;0.40;;
18677;SDS011;9469;51.114;13.914;2023-10-31T09:26:13;1.13;;;0.57;;
18677;SDS011;9469;51.114;13.914;2023-10-31T09:31:19;2.20;;;1.20;;
18677;SDS011;9469;51.114;13.914;2023-10-31T09:36:29;0.33;;;0.33;;
18677;SDS011;9469;51.114;13.914;2023-10-31T09:41:37;3.07;;;1.17;;
18677;SDS011;9469;51.114;13.914;2023-10-31T09:46:46;0.73;;;0.40;;
18677;SDS011;9469;51.114;13.914;2023-10-31T09:51:54;0.80;;;0.60;;
18677;SDS011;9469;51.114;13.914;2023-10-31T09:57:01;2.60;;;0.90;;
18677;SDS011;9469;51.114;13.914;2023-10-31T10:02:06;1.43;;;0.87;;
18677;SDS011;9469;51.114;13.914;2023-10-31T10:07:16;2.90;;;1.07;;
18677;SDS011;9469;51.114;13.914;2023-10-31T10:12:23;3.00;;;1.27;;
18677;SDS011;9469;51.114;13.914;2023-10-31T10:17:31;2.27;;;0.90;;
18677;SDS011;9469;51.114;13.914;2023-10-31T10:22:40;2.17;;;0.80;;
18677;SDS011;9469;51.114;13.914;2023-10-31T10:27:47;3.30;;;1.20;;
18677;SDS011;9469;51.114;13.914;2023-10-31T10:32:52;2.20;;;0.70;;
18677;SDS011;9469;51.114;13.914;2023-10-31T10:38:02;6.17;;;1.40;;
18677;SDS011;9469;51.114;13.914;2023-10-31T10:43:13;5.20;;;2.13;;
18677;SDS011;9469;51.114;13.914;2023-10-31T10:48:26;3.67;;;2.03;;
18677;SDS011;9469;51.114;13.914;2023-10-31T10:53:35;1.83;;;0.70;;
18677;SDS011;9469;51.114;13.914;2023-10-31T10:58:50;2.10;;;0.53;;
18677;SDS011;9469;51.114;13.914;2023-10-31T11:04:00;2.10;;;0.77;;
18677;SDS011;9469;51.114;13.914;2023-10-31T11:09:08;0.77;;;0.60;;
18677;SDS011;9469;51.114;13.914;2023-10-31T11:14:15;1.63;;;0.80;;
18677;SDS011;9469;51.114;13.914;2023-10-31T11:19:21;2.77;;;1.57;;
18677;SDS011;9469;51.114;13.914;2023-10-31T11:24:35;3.90;;;1.47;;
18677;SDS011;9469;51.114;13.914;2023-10-31T11:29:45;2.50;;;1.33;;
18677;SDS011;9469;51.114;13.914;2023-10-31T11:34:52;1.53;;;0.90;;
18677;SDS011;9469;51.114;13.914;2023-10-31T11:45:26;0.70;;;0.50;;
18677;SDS011;9469;51.114;13.914;2023-10-31T11:50:34;0.70;;;0.60;;
18677;SDS011;9469;51.114;13.914;2023-10-31T11:55:47;0.33;;;0.33;;
18677;SDS011;9469;51.114;13.914;2023-10-31T12:01:01;1.30;;;0.63;;
18677;SDS011;9469;51.114;13.914;2023-10-31T12:06:08;2.17;;;0.83;;
18677;SDS011;9469;51.114;13.914;2023-10-31T12:11:19;2.30;;;0.83;;
18677;SDS011;9469;51.114;13.914;2023-10-31T12:16:25;4.23;;;2.30;;
18677;SDS011;9469;51.114;13.914;2023-10-31T12:21:36;2.67;;;1.40;;
18677;SDS011;9469;51.114;13.914;2023-10-31T12:26:45;2.93;;;1.83;;
18677;SDS011;9469;51.114;13.914;2023-10-31T12:31:53;3.20;;;1.60;;
18677;SDS011;9469;51.114;13.914;2023-10-31T12:37:00;3.70;;;1.43;;
18677;SDS011;9469;51.114;13.914;2023-10-31T12:42:08;1.50;;;0.90;;
18677;SDS011;9469;51.114;13.914;2023-10-31T12:47:20;3.23;;;0.97;;
18677;SDS011;9469;51.114;13.914;2023-10-31T12:52:30;5.43;;;3.20;;
18677;SDS011;9469;51.114;13.914;2023-10-31T12:57:54;3.10;;;1.30;;
18677;SDS011;9469;51.114;13.914;2023-10-31T13:03:38;2.90;;;1.70;;
18677;SDS011;9469;51.114;13.914;2023-10-31T13:08:55;5.50;;;2.43;;
18677;SDS011;9469;51.114;13.914;2023-10-31T13:14:03;3.20;;;2.20;;
18677;SDS011;9469;51.114;13.914;2023-10-31T13:19:12;4.43;;;2.10;;
18677;SDS011;9469;51.114;13.914;2023-10-31T13:24:18;2.50;;;1.27;;
18677;SDS011;9469;51.114;13.914;2023-10-31T13:29:26;3.10;;;1.50;;
18677;SDS011;9469;51.114;13.914;2023-10-31T13:34:32;3.37;;;1.90;;
18677;SDS011;9469;51.114;13.914;2023-10-31T13:39:38;4.53;;;1.90;;
18677;SDS011;9469;51.114;13.914;2023-10-31T13:44:48;5.33;;;1.70;;
18677;SDS011;9469;51.114;13.914;2023-10-31T13:49:55;1.50;;;1.10;;
18677;SDS011;9469;51.114;13.914;2023-10-31T13:55:03;4.07;;;1.90;;
18677;SDS011;9469;51.114;13.914;2023-10-31T14:00:13;3.63;;;2.00;;
18677;SDS011;9469;51.114;13.914;2023-10-31T14:05:20;1.97;;;1.40;;
18677;SDS011;9469;51.114;13.914;2023-10-31T14:10:26;3.53;;;1.80;;
18677;SDS011;9469;51.114;13.914;2023-10-31T14:15:35;3.87;;;1.97;;
18677;SDS011;9469;51.114;13.914;2023-10-31T14:20:44;2.80;;;1.20;;
18677;SDS011;9469;51.114;13.914;2023-10-31T14:25:52;1.23;;;0.97;;
18677;SDS011;9469;51.114;13.914;2023-10-31T14:31:00;1.63;;;0.90;;
18677;SDS011;9469;51.114;13.914;2023-10-31T14:36:10;1.27;;;0.90;;
18677;SDS011;9469;51.114;13.914;2023-10-31T14:41:16;2.30;;;0.60;;
18677;SDS011;9469;51.114;13.914;2023-10-31T14:46:24;1.87;;;0.93;;
18677;SDS011;9469;51.114;13.914;2023-10-31T14:51:32;1.47;;;0.73;;
18677;SDS011;9469;51.114;13.914;2023-10-31T14:56:37;3.17;;;1.20;;
18677;SDS011;9469;51.114;13.914;2023-10-31T15:01:46;1.97;;;0.90;;
18677;SDS011;9469;51.114;13.914;2023-10-31T15:06:51;5.97;;;1.23;;
18677;SDS011;9469;51.114;13.914;2023-10-31T15:11:57;3.80;;;1.10;;
18677;SDS011;9469;51.114;13.914;2023-10-31T15:17:07;0.67;;;0.67;;
18677;SDS011;9469;51.114;13.914;2023-10-31T15:22:12;1.00;;;0.77;;
18677;SDS011;9469;51.114;13.914;2023-10-31T15:27:17;0.70;;;0.70;;
18677;SDS011;9469;51.114;13.914;2023-10-31T15:32:27;0.87;;;0.83;;
18677;SDS011;9469;51.114;13.914;2023-10-31T15:37:32;2.40;;;1.10;;
18677;SDS011;9469;51.114;13.914;2023-10-31T15:42:42;2.83;;;1.00;;
18677;SDS011;9469;51.114;13.914;2023-10-31T15:47:50;0.70;;;0.70;;
18677;SDS011;9469;51.114;13.914;2023-10-31T15:52:56;1.47;;;0.80;;
18677;SDS011;9469;51.114;13.914;2023-10-31T15:58:03;1.27;;;1.10;;
18677;SDS011;9469;51.114;13.914;2023-10-31T16:03:12;2.60;;;1.00;;
18677;SDS011;9469;51.114;13.914;2023-10-31T16:08:21;2.00;;;0.80;;
18677;SDS011;9469;51.114;13.914;2023-10-31T16:13:28;2.30;;;1.00;;
18677;SDS011;9469;51.114;13.914;2023-10-31T16:18:38;1.33;;;1.10;;
18677;SDS011;9469;51.114;13.914;2023-10-31T16:23:44;1.63;;;0.90;;
18677;SDS011;9469;51.114;13.914;2023-10-31T16:28:53;2.67;;;1.10;;
18677;SDS011;9469;51.114;13.914;2023-10-31T16:34:07;2.33;;;1.10;;
18677;SDS011;9469;51.114;13.914;2023-10-31T16:39:14;1.23;;;1.13;;
18677;SDS011;9469;51.114;13.914;2023-10-31T16:44:30;1.23;;;0.90;;
18677;SDS011;9469;51.114;13.914;2023-10-31T16:49:40;2.13;;;0.90;;
18677;SDS011;9469;51.114;13.914;2023-10-31T16:54:48;2.90;;;1.03;;
18677;SDS011;9469;51.114;13.914;2023-10-31T16:59:55;1.10;;;0.90;;
18677;SDS011;9469;51.114;13.914;2023-10-31T17:05:09;1.40;;;1.30;;
18677;SDS011;9469;51.114;13.914;2023-10-31T17:10:15;1.63;;;1.00;;
18677;SDS011;9469;51.114;13.914;2023-10-31T17:15:23;2.37;;;1.40;;
18677;SDS011;9469;51.114;13.914;2023-10-31T17:20:37;1.30;;;1.03;;
18677;SDS011;9469;51.114;13.914;2023-10-31T17:25:43;1.70;;;1.17;;
18677;SDS011;9469;51.114;13.914;2023-10-31T17:30:49;1.27;;;1.10;;
18677;SDS011;9469;51.114;13.914;2023-10-31T17:36:00;3.03;;;1.00;;
18677;SDS011;9469;51.114;13.914;2023-10-31T17:41:05;2.30;;;1.60;;
18677;SDS011;9469;51.114;13.914;2023-10-31T17:46:11;1.10;;;1.00;;
18677;SDS011;9469;51.114;13.914;2023-10-31T17:51:19;1.33;;;1.23;;
18677;SDS011;9469;51.114;13.914;2023-10-31T17:56:26;2.17;;;1.07;;
18677;SDS011;9469;51.114;13.914;2023-10-31T18:01:32;1.80;;;1.13;;
18677;SDS011;9469;51.114;13.914;2023-10-31T18:06:40;2.40;;;1.70;;
18677;SDS011;9469;51.114;13.914;2023-10-31T18:11:48;1.53;;;1.03;;
18677;SDS011;9469;51.114;13.914;2023-10-31T18:16:55;1.37;;;1.17;;
18677;SDS011;9469;51.114;13.914;2023-10-31T18:22:06;1.77;;;1.17;;
18677;SDS011;9469;51.114;13.914;2023-10-31T18:27:11;2.53;;;1.53;;
18677;SDS011;9469;51.114;13.914;2023-10-31T18:32:16;1.40;;;1.30;;
18677;SDS011;9469;51.114;13.914;2023-10-31T18:37:28;2.97;;;1.20;;
18677;SDS011;9469;51.114;13.914;2023-10-31T18:42:36;2.83;;;1.50;;
18677;SDS011;9469;51.114;13.914;2023-10-31T18:47:43;1.90;;;1.60;;
18677;SDS011;9469;51.114;13.914;2023-10-31T18:52:52;2.83;;;1.30;;
18677;SDS011;9469;51.114;13.914;2023-10-31T18:57:58;13.37;;;2.67;;
18677;SDS011;9469;51.114;13.914;2023-10-31T19:03:03;2.87;;;1.20;;
18677;SDS011;9469;51.114;13.914;2023-10-31T19:08:11;2.20;;;1.27;;
18677;SDS011;9469;51.114;13.914;2023-10-31T19:13:16;5.33;;;1.63;;
18677;SDS011;9469;51.114;13.914;2023-10-31T19:18:23;2.07;;;1.40;;
18677;SDS011;9469;51.114;13.914;2023-10-31T19:23:31;3.57;;;1.43;;
18677;SDS011;9469;51.114;13.914;2023-10-31T19:28:37;1.80;;;1.70;;
18677;SDS011;9469;51.114;13.914;2023-10-31T19:33:42;5.03;;;1.43;;
18677;SDS011;9469;51.114;13.914;2023-10-31T19:38:52;4.40;;;1.83;;
18677;SDS011;9469;51.114;13.914;2023-10-31T19:43:59;4.10;;;2.07;;
18677;SDS011;9469;51.114;13.914;2023-10-31T19:49:09;2.17;;;1.50;;
18677;SDS011;9469;51.114;13.914;2023-10-31T19:54:24;2.23;;;1.60;;
18677;SDS011;9469;51.114;13.914;2023-10-31T19:59:30;3.83;;;1.60;;
18677;SDS011;9469;51.114;13.914;2023-10-31T20:04:37;2.93;;;1.90;;
18677;SDS011;9469;51.114;13.914;2023-10-31T20:09:51;2.83;;;1.43;;
18677;SDS011;9469;51.114;13.914;2023-10-31T20:15:00;3.30;;;1.60;;
18677;SDS011;9469;51.114;13.914;2023-10-31T20:20:09;3.17;;;1.40;;
18677;SDS011;9469;51.114;13.914;2023-10-31T20:25:27;1.57;;;1.20;;
18677;SDS011;9469;51.114;13.914;2023-10-31T20:30:35;2.57;;;1.73;;
18677;SDS011;9469;51.114;13.914;2023-10-31T20:35:42;2.50;;;1.30;;
18677;SDS011;9469;51.114;13.914;2023-10-31T20:40:53;2.30;;;1.23;;
18677;SDS011;9469;51.114;13.914;2023-10-31T20:45:59;2.43;;;1.23;;
18677;SDS011;9469;51.114;13.914;2023-10-31T20:51:05;2.40;;;1.60;;
18677;SDS011;9469;51.114;13.914;2023-10-31T20:56:13;1.70;;;1.33;;
18677;SDS011;9469;51.114;13.914;2023-10-31T21:01:20;4.80;;;1.10;;
18677;SDS011;9469;51.114;13.914;2023-10-31T21:06:26;3.30;;;1.07;;
18677;SDS011;9469;51.114;13.914;2023-10-31T21:11:36;1.70;;;1.20;;
18677;SDS011;9469;51.114;13.914;2023-10-31T21:16:42;1.80;;;1.10;;
18677;SDS011;9469;51.114;13.914;2023-10-31T21:21:47;3.77;;;2.60;;
18677;SDS011;9469;51.114;13.914;2023-10-31T21:26:55;3.93;;;1.40;;
18677;SDS011;9469;51.114;13.914;2023-10-31T21:32:02;2.63;;;1.23;;
18677;SDS011;9469;51.114;13.914;2023-10-31T21:37:08;1.73;;;1.10;;
18677;SDS011;9469;51.114;13.914;2023-10-31T21:42:16;4.20;;;1.23;;
18677;SDS011;9469;51.114;13.914;2023-10-31T21:47:21;4.13;;;1.10;;
18677;SDS011;9469;51.114;13.914;2023-10-31T21:52:27;2.73;;;1.30;;
18677;SDS011;9469;51.114;13.914;2023-10-31T21:57:34;1.97;;;1.00;;
18677;SDS011;9469;51.114;13.914;2023-10-31T22:02:40;4.00;;;1.10;;
18677;SDS011;9469;51.114;13.914;2023-10-31T22:07:45;1.37;;;1.10;;
18677;SDS011;9469;51.114;13.914;2023-10-31T22:12:53;3.13;;;1.20;;
18677;SDS011;9469;51.114;13.914;2023-10-31T22:17:58;4.63;;;1.10;;
18677;SDS011;9469;51.114;13.914;2023-10-31T22:23:04;3.43;;;1.30;;
18677;SDS011;9469;51.114;13.914;2023-10-31T22:28:13;2.37;;;1.13;;
18677;SDS011;9469;51.114;13.914;2023-10-31T22:33:19;4.00;;;1.40;;
18677;SDS011;9469;51.114;13.914;2023-10-31T22:38:24;1.87;;;1.20;;
18677;SDS011;9469;51.114;13.914;2023-10-31T22:43:32;4.20;;;1.60;;
18677;SDS011;9469;51.114;13.914;2023-10-31T22:48:37;3.70;;;1.60;;
18677;SDS011;9469;51.114;13.914;2023-10-31T22:53:43;2.13;;;1.33;;
18677;SDS011;9469;51.114;13.914;2023-10-31T22:58:51;5.40;;;1.50;;
18677;SDS011;9469;51.114;13.914;2023-10-31T23:03:56;3.03;;;1.27;;
18677;SDS011;9469;51.114;13.914;2023-10-31T23:09:04;3.33;;;1.93;;
18677;SDS011;9469;51.114;13.914;2023-10-31T23:14:19;3.93;;;1.90;;
18677;SDS011;9469;51.114;13.914;2023-10-31T23:19:25;5.43;;;1.63;;
18677;SDS011;9469;51.114;13.914;2023-10-31T23:24:30;2.50;;;1.30;;
18677;SDS011;9469;51.114;13.914;2023-10-31T23:29:39;7.00;;;1.60;;
18677;SDS011;9469;51.114;13.914;2023-10-31T23:34:46;3.73;;;1.50;;
18677;SDS011;9469;51.114;13.914;2023-10-31T23:39:51;2.53;;;1.70;;
18677;SDS011;9469;51.114;13.914;2023-10-31T23:44:59;3.63;;;1.60;;
18677;SDS011;9469;51.114;13.914;2023-10-31T23:50:08;2.87;;;1.37;;
18677;SDS011;9469;51.114;13.914;2023-10-31T23:55:19;4.00;;;1.37;;
